Time;durP1;ratioP1;P1;durP2;ratioP2;P2;SDS_P1;SDS_P2;PMS_P1;PMS_P2;Temp;Humidity;BMP_temperature;BMP_pressure;BME280_temperature;BME280_humidity;BME280_pressure;Samples;Min_cycle;Max_cycle;Signal;HPM_P1;HPM_P2
2021/07/22 00:01:13;;;;;;;9.13;2.50;;;15.60;59.90;;;;;;5072090;28;20032;-58
2021/07/22 00:03:41;;;;;;;3.72;2.20;;;15.60;58.50;;;;;;5090048;28;20035;-58
2021/07/22 00:06:08;;;;;;;2.78;1.92;;;15.80;58.30;;;;;;5089755;28;20028;-57
2021/07/22 00:08:35;;;;;;;4.45;2.47;;;15.90;56.20;;;;;;5090199;28;20534;-60
2021/07/22 00:11:06;;;;;;;3.53;2.47;;;16.00;58.20;;;;;;5090116;28;20474;-63
2021/07/22 00:13:33;;;;;;;5.40;2.28;;;16.10;56.30;;;;;;5090084;28;20470;-61
2021/07/22 00:16:01;;;;;;;2.53;1.73;;;16.30;57.80;;;;;;5089875;28;20040;-58
2021/07/22 00:18:33;;;;;;;10.05;3.80;;;16.50;57.70;;;;;;5089164;28;20051;-59
2021/07/22 00:21:01;;;;;;;6.85;5.43;;;16.50;56.10;;;;;;5071720;28;20035;-57
2021/07/22 00:23:28;;;;;;;3.83;1.98;;;16.70;55.20;;;;;;5089756;28;20359;-57
2021/07/22 00:25:56;;;;;;;4.78;2.42;;;16.70;55.80;;;;;;5090098;28;20024;-54
2021/07/22 00:28:23;;;;;;;4.00;2.15;;;16.90;55.00;;;;;;5089856;28;20529;-56
2021/07/22 00:30:50;;;;;;;4.20;2.40;;;17.10;55.70;;;;;;5090425;28;20036;-61
2021/07/22 00:33:18;;;;;;;5.57;2.30;;;17.20;55.40;;;;;;5090165;28;20024;-60
2021/07/22 00:35:45;;;;;;;3.72;2.20;;;17.30;53.60;;;;;;5090231;28;20094;-56
2021/07/22 00:38:12;;;;;;;3.35;2.40;;;17.30;54.40;;;;;;5090196;28;20024;-57
2021/07/22 00:40:47;;;;;;;3.72;2.63;;;17.40;53.70;;;;;;5090451;28;20038;-63
2021/07/22 00:43:14;;;;;;;2.45;2.17;;;17.40;54.20;;;;;;5089976;28;20100;-58
2021/07/22 00:45:42;;;;;;;4.25;2.10;;;17.50;55.10;;;;;;5070800;28;20039;-58
2021/07/22 00:48:09;;;;;;;4.38;2.30;;;17.60;54.40;;;;;;5089670;28;20057;-54
2021/07/22 00:50:36;;;;;;;4.07;2.30;;;17.70;54.40;;;;;;5071320;28;20035;-53
2021/07/22 00:53:04;;;;;;;1.92;1.55;;;17.70;52.70;;;;;;5103739;28;20031;-57
2021/07/22 00:55:32;;;;;;;3.90;2.22;;;17.70;54.60;;;;;;5090858;28;20059;-62
2021/07/22 00:57:59;;;;;;;5.65;2.03;;;17.80;53.30;;;;;;5109741;28;20076;-62
2021/07/22 01:00:27;;;;;;;5.03;2.45;;;18.00;53.10;;;;;;5109449;28;20031;-59
2021/07/22 01:02:54;;;;;;;3.08;1.60;;;18.00;52.60;;;;;;5109596;28;20031;-59
2021/07/22 01:05:21;;;;;;;5.63;2.65;;;18.00;54.20;;;;;;5090979;28;20020;-61
2021/07/22 01:07:49;;;;;;;4.30;2.25;;;18.00;52.10;;;;;;5109642;28;20035;-62
2021/07/22 01:10:19;;;;;;;5.82;2.28;;;18.20;52.20;;;;;;5108667;28;20046;-60
2021/07/22 01:12:46;;;;;;;3.22;1.95;;;18.20;53.20;;;;;;5109656;28;20031;-58
2021/07/22 01:15:14;;;;;;;2.60;2.00;;;18.30;53.70;;;;;;5109591;28;20039;-59
2021/07/22 01:17:48;;;;;;;4.35;2.08;;;18.30;52.70;;;;;;5109576;28;20028;-59
2021/07/22 01:20:16;;;;;;;6.25;2.40;;;18.50;51.10;;;;;;5109368;28;20076;-61
2021/07/22 01:22:45;;;;;;;3.13;2.05;;;18.60;51.00;;;;;;5109346;28;20049;-61
2021/07/22 01:25:13;;;;;;;3.72;2.60;;;18.70;52.70;;;;;;5109453;28;20039;-60
2021/07/22 01:27:41;;;;;;;3.70;1.50;;;18.80;51.80;;;;;;5109432;28;20036;-60
2021/07/22 01:30:10;;;;;;;6.13;2.30;;;18.90;51.00;;;;;;5110901;28;20031;-59
2021/07/22 01:32:41;;;;;;;2.88;1.92;;;18.90;51.50;;;;;;5113271;28;20092;-64
2021/07/22 01:35:10;;;;;;;4.40;1.90;;;19.10;51.10;;;;;;5112899;28;20104;-58
2021/07/22 01:37:43;;;;;;;3.83;1.83;;;19.10;52.00;;;;;;5102250;28;20519;-52
2021/07/22 01:40:12;;;;;;;5.63;2.67;;;19.20;49.10;;;;;;5108232;28;20024;-49
2021/07/22 01:42:40;;;;;;;4.47;1.70;;;18.90;47.30;;;;;;5098671;28;20032;-48
2021/07/22 01:45:09;;;;;;;6.18;2.67;;;18.80;49.50;;;;;;5087540;28;20534;-54
2021/07/22 01:47:41;;;;;;;9.50;2.78;;;18.70;48.30;;;;;;5087924;28;20082;-47
2021/07/22 01:50:09;;;;;;;5.15;2.05;;;18.90;47.40;;;;;;5087638;28;20368;-53
2021/07/22 01:52:37;;;;;;;3.42;2.00;;;18.90;47.30;;;;;;5069136;28;20039;-52
2021/07/22 01:55:05;;;;;;;4.43;2.10;;;19.00;47.40;;;;;;5087481;28;20101;-61
2021/07/22 01:57:32;;;;;;;8.27;2.25;;;19.10;48.10;;;;;;5087403;28;20114;-49
2021/07/22 02:00:04;;;;;;;4.35;2.40;;;19.20;47.60;;;;;;5087714;28;20490;-49
2021/07/22 02:02:32;;;;;;;10.90;2.90;;;19.10;47.60;;;;;;5088087;28;20082;-54
2021/07/22 02:05:01;;;;;;;4.90;2.00;;;19.10;45.80;;;;;;5087257;28;20124;-53
2021/07/22 02:07:29;;;;;;;4.22;1.95;;;19.30;47.30;;;;;;5087812;28;20020;-55
2021/07/22 02:09:56;;;;;;;4.97;2.42;;;19.20;46.00;;;;;;5087301;28;20367;-50
2021/07/22 02:12:24;;;;;;;4.18;1.90;;;19.20;45.70;;;;;;5087285;28;20024;-54
2021/07/22 02:14:51;;;;;;;6.00;2.67;;;19.30;46.40;;;;;;5086973;28;20042;-52
2021/07/22 02:17:19;;;;;;;4.00;2.00;;;19.20;42.80;;;;;;5087070;28;20032;-59
2021/07/22 02:19:48;;;;;;;2.38;1.20;;;19.30;46.30;;;;;;5086930;28;20720;-56
2021/07/22 02:22:16;;;;;;;6.15;1.73;;;19.30;42.90;;;;;;5086631;28;20028;-59
2021/07/22 02:24:47;;;;;;;7.28;2.03;;;19.30;44.50;;;;;;5084622;28;20028;-59
2021/07/22 02:27:14;;;;;;;6.28;2.22;;;19.40;46.60;;;;;;5068223;28;20044;-57
2021/07/22 02:29:41;;;;;;;6.32;2.55;;;19.00;49.50;;;;;;5067935;28;20036;-56
2021/07/22 02:32:12;;;;;;;4.60;2.03;;;19.00;49.50;;;;;;5084863;28;20119;-61
2021/07/22 02:34:39;;;;;;;4.78;2.45;;;19.20;49.40;;;;;;5067091;28;20090;-58
2021/07/22 02:37:07;;;;;;;7.43;2.60;;;19.30;49.60;;;;;;5086280;28;20118;-59
2021/07/22 02:39:38;;;;;;;5.90;2.35;;;19.40;49.20;;;;;;5086841;28;20094;-58
2021/07/22 02:42:06;;;;;;;6.40;2.77;;;19.60;49.50;;;;;;5085762;28;20077;-58
2021/07/22 02:44:39;;;;;;;4.60;2.70;;;19.90;48.60;;;;;;5086311;28;20442;-59
2021/07/22 02:47:11;;;;;;;;;;;20.00;48.60;;;;;;5087208;28;20040;-62
2021/07/22 02:49:38;;;;;;;;;;;20.20;47.20;;;;;;5087713;28;20489;-58
2021/07/22 02:52:08;;;;;;;4.28;1.58;;;20.40;48.20;;;;;;5086751;28;19915;-59
2021/07/22 02:54:36;;;;;;;4.97;2.10;;;20.60;47.20;;;;;;5086300;28;20524;-60
2021/07/22 02:57:03;;;;;;;4.13;1.70;;;20.50;48.40;;;;;;5086671;28;20035;-62
2021/07/22 02:59:30;;;;;;;3.85;2.22;;;20.70;48.10;;;;;;5087192;28;20026;-57
2021/07/22 03:01:58;;;;;;;4.18;1.92;;;20.70;48.40;;;;;;5068838;28;20089;-60
2021/07/22 03:04:25;;;;;;;2.97;1.80;;;20.70;48.20;;;;;;5086390;28;20073;-61
2021/07/22 03:06:52;;;;;;;4.82;2.00;;;20.60;47.20;;;;;;5087232;28;20020;-61
2021/07/22 03:09:20;;;;;;;6.28;1.58;;;20.90;46.70;;;;;;5084553;27;20044;-52
2021/07/22 03:11:47;;;;;;;2.47;1.50;;;21.10;47.50;;;;;;5103241;28;20019;-52
2021/07/22 03:14:14;;;;;;;3.50;1.55;;;21.00;47.90;;;;;;5096540;28;20972;-54
2021/07/22 03:16:42;;;;;;;1.73;1.30;;;21.10;47.90;;;;;;5096708;28;20809;-59
2021/07/22 03:19:09;;;;;;;1.80;1.33;;;21.00;45.60;;;;;;5091638;28;20379;-57
2021/07/22 03:21:36;;;;;;;3.42;2.03;;;21.10;48.20;;;;;;5094904;28;20035;-59
2021/07/22 03:24:04;;;;;;;3.75;1.77;;;21.30;48.20;;;;;;5096395;28;20486;-57
2021/07/22 03:26:31;;;;;;;3.10;1.35;;;21.30;48.30;;;;;;5096800;28;20516;-59
2021/07/22 03:28:59;;;;;;;3.30;1.77;;;21.50;45.90;;;;;;5100324;28;20048;-63
2021/07/22 03:31:26;;;;;;;2.67;1.80;;;21.40;46.60;;;;;;5087777;28;20605;-63
2021/07/22 03:33:53;;;;;;;1.95;1.23;;;21.40;46.10;;;;;;5105795;28;20161;-60
2021/07/22 03:36:21;;;;;;;2.70;1.67;;;21.60;47.30;;;;;;5105172;28;20036;-59
2021/07/22 03:38:48;;;;;;;3.22;1.58;;;21.30;48.40;;;;;;5105768;28;20136;-59
2021/07/22 03:41:19;;;;;;;3.47;1.30;;;21.30;47.90;;;;;;5105805;28;20016;-60
2021/07/22 03:43:46;;;;;;;4.05;1.38;;;21.10;48.90;;;;;;5106387;28;20089;-60
2021/07/22 03:46:13;;;;;;;3.58;1.83;;;21.20;48.40;;;;;;5105754;28;20035;-59
2021/07/22 03:48:41;;;;;;;4.10;1.73;;;21.20;48.80;;;;;;5106189;28;20500;-55
2021/07/22 03:51:08;;;;;;;3.70;1.55;;;21.10;49.00;;;;;;5105507;28;20038;-61
2021/07/22 03:53:36;;;;;;;3.85;1.45;;;21.00;48.70;;;;;;5087403;28;20019;-64
2021/07/22 03:56:03;;;;;;;2.45;1.38;;;21.10;48.50;;;;;;5105557;28;20055;-60
2021/07/22 03:58:31;;;;;;;2.17;1.10;;;21.30;47.20;;;;;;5105816;28;20035;-53
2021/07/22 04:00:58;;;;;;;3.20;1.70;;;21.20;47.00;;;;;;5105680;28;20031;-60
2021/07/22 04:03:26;;;;;;;3.13;1.40;;;21.10;47.50;;;;;;5105440;28;20457;-60
2021/07/22 04:05:53;;;;;;;4.43;1.40;;;21.10;46.80;;;;;;5105043;28;20486;-52
2021/07/22 04:08:20;;;;;;;3.80;1.50;;;21.00;48.10;;;;;;5105450;28;20083;-58
2021/07/22 04:10:48;;;;;;;4.13;1.80;;;21.00;46.60;;;;;;5105667;28;20432;-55
2021/07/22 04:13:15;;;;;;;2.95;1.48;;;20.90;49.50;;;;;;5102514;28;20028;-57
2021/07/22 04:15:42;;;;;;;4.53;1.30;;;21.00;49.50;;;;;;5103404;28;20394;-58
2021/07/22 04:18:10;;;;;;;4.60;1.05;;;21.20;49.30;;;;;;5084984;28;20039;-56
2021/07/22 04:20:37;;;;;;;4.93;1.20;;;21.20;47.40;;;;;;5103458;28;20051;-56
2021/07/22 04:23:05;;;;;;;1.98;1.30;;;21.20;49.20;;;;;;5103318;28;20116;-55
2021/07/22 04:25:32;;;;;;;3.17;1.33;;;21.30;49.20;;;;;;5104429;28;20116;-63
2021/07/22 04:27:59;;;;;;;3.25;1.25;;;21.10;49.30;;;;;;5086578;28;20055;-60
2021/07/22 04:30:27;;;;;;;2.17;1.30;;;21.20;49.50;;;;;;5104783;28;20046;-63
2021/07/22 04:32:58;;;;;;;2.45;1.10;;;21.00;49.90;;;;;;5105317;28;20151;-61
2021/07/22 04:35:25;;;;;;;3.90;1.40;;;21.10;47.20;;;;;;5104900;28;20185;-57
2021/07/22 04:37:52;;;;;;;5.28;1.35;;;21.20;49.10;;;;;;5104841;28;20020;-57
2021/07/22 04:40:20;;;;;;;1.88;0.93;;;21.40;47.00;;;;;;5103090;28;20098;-57
2021/07/22 04:42:47;;;;;;;4.32;1.10;;;21.40;48.40;;;;;;5102683;28;20651;-58
2021/07/22 04:45:15;;;;;;;3.45;1.40;;;21.50;46.50;;;;;;5102732;28;20072;-61
2021/07/22 04:47:43;;;;;;;2.53;1.00;;;21.50;48.00;;;;;;5084657;28;20024;-57
2021/07/22 04:50:11;;;;;;;3.10;1.30;;;21.40;48.90;;;;;;5102460;28;20023;-56
2021/07/22 04:52:38;;;;;;;2.58;1.15;;;21.50;48.10;;;;;;5103269;28;20282;-61
2021/07/22 04:55:07;;;;;;;1.98;1.15;;;21.50;47.20;;;;;;5105106;28;20043;-61
2021/07/22 04:57:35;;;;;;;2.17;1.10;;;21.50;48.80;;;;;;5105323;28;20352;-62
2021/07/22 05:00:04;;;;;;;3.17;1.60;;;21.50;48.90;;;;;;5105175;28;20524;-55
2021/07/22 05:02:31;;;;;;;4.60;1.60;;;21.50;47.90;;;;;;5104873;28;20408;-60
2021/07/22 05:04:58;;;;;;;3.60;1.15;;;21.50;49.20;;;;;;5106789;28;20019;-60
2021/07/22 05:07:26;;;;;;;2.97;1.20;;;21.40;49.40;;;;;;5109350;28;20035;-59
2021/07/22 05:09:53;;;;;;;1.77;1.20;;;21.40;47.40;;;;;;5109312;28;20023;-62
2021/07/22 05:12:20;;;;;;;1.95;0.90;;;21.40;49.20;;;;;;5109440;28;20031;-61
2021/07/22 05:14:48;;;;;;;2.55;1.27;;;21.10;49.20;;;;;;5109122;28;20082;-59
2021/07/22 05:17:15;;;;;;;4.78;0.75;;;20.90;48.30;;;;;;5108997;28;20115;-62
2021/07/22 05:19:42;;;;;;;3.08;1.23;;;20.90;49.30;;;;;;5109330;28;20036;-60
2021/07/22 05:22:10;;;;;;;1.95;0.95;;;20.90;49.50;;;;;;5108840;28;20024;-62
2021/07/22 05:24:37;;;;;;;1.38;0.82;;;20.60;50.40;;;;;;5108893;28;20390;-58
2021/07/22 05:27:05;;;;;;;1.88;1.13;;;20.50;50.60;;;;;;5109228;28;20111;-56
2021/07/22 05:29:32;;;;;;;2.75;1.30;;;20.30;51.00;;;;;;5102907;28;20059;-57
2021/07/22 05:31:59;;;;;;;3.10;1.38;;;20.20;51.20;;;;;;5108934;28;20424;-58
2021/07/22 05:34:27;;;;;;;1.85;0.80;;;20.00;51.60;;;;;;5108385;28;20077;-63
2021/07/22 05:36:55;;;;;;;2.60;0.90;;;19.80;52.50;;;;;;5109014;28;20402;-56
2021/07/22 05:39:22;;;;;;;2.58;1.10;;;19.60;51.50;;;;;;5108982;28;20473;-54
2021/07/22 05:41:49;;;;;;;1.30;1.08;;;19.50;52.00;;;;;;5108400;28;20691;-56
2021/07/22 05:44:17;;;;;;;2.17;0.80;;;19.40;52.60;;;;;;5108545;28;20039;-54
2021/07/22 05:46:44;;;;;;;2.05;0.80;;;19.30;51.60;;;;;;5108621;28;20024;-55
2021/07/22 05:49:11;;;;;;;1.85;1.20;;;19.20;52.40;;;;;;5108141;28;20031;-61
2021/07/22 05:51:39;;;;;;;2.78;1.02;;;19.00;53.50;;;;;;5108134;28;20031;-59
2021/07/22 05:54:08;;;;;;;3.88;0.80;;;18.80;54.00;;;;;;5097277;28;20024;-62
2021/07/22 05:56:37;;;;;;;1.60;0.75;;;18.70;54.40;;;;;;5088145;28;20040;-60
2021/07/22 05:59:04;;;;;;;3.17;1.33;;;18.60;54.10;;;;;;5069673;28;20572;-59
2021/07/22 06:01:31;;;;;;;1.02;0.77;;;18.50;55.00;;;;;;5087394;28;20028;-59
2021/07/22 06:03:59;;;;;;;2.50;0.90;;;18.30;54.40;;;;;;5087319;28;20570;-60
2021/07/22 06:06:26;;;;;;;2.75;1.02;;;18.30;53.70;;;;;;5087813;28;20391;-59
2021/07/22 06:08:54;;;;;;;5.10;1.00;;;18.30;53.80;;;;;;5087767;28;20482;-57
2021/07/22 06:11:21;;;;;;;5.55;0.85;;;18.20;54.10;;;;;;5087559;28;20127;-57
2021/07/22 06:13:49;;;;;;;2.50;1.20;;;18.10;55.50;;;;;;5086961;28;20419;-55
2021/07/22 06:16:16;;;;;;;3.10;1.30;;;17.90;56.40;;;;;;5086027;28;20557;-55
2021/07/22 06:18:44;;;;;;;3.15;1.00;;;17.80;55.30;;;;;;5087136;28;20066;-58
2021/07/22 06:21:18;;;;;;;3.90;1.00;;;17.70;56.00;;;;;;5087150;28;20756;-56
2021/07/22 06:23:46;;;;;;;2.10;0.82;;;17.60;55.70;;;;;;5087331;28;20036;-58
2021/07/22 06:26:13;;;;;;;2.20;0.77;;;17.50;56.50;;;;;;5087218;28;20032;-59
2021/07/22 06:28:41;;;;;;;6.82;1.10;;;17.40;56.90;;;;;;5083047;28;20048;-56
2021/07/22 06:31:08;;;;;;;1.15;0.80;;;17.30;56.40;;;;;;5086851;28;20599;-55
2021/07/22 06:33:35;;;;;;;4.93;0.93;;;17.20;57.60;;;;;;5086600;28;20686;-57
2021/07/22 06:36:03;;;;;;;2.17;0.98;;;17.10;57.30;;;;;;5086737;28;20109;-57
2021/07/22 06:38:31;;;;;;;3.30;1.20;;;17.10;58.20;;;;;;5087208;28;20028;-58
2021/07/22 06:40:58;;;;;;;2.85;1.35;;;17.00;58.50;;;;;;5087095;28;20054;-56
2021/07/22 06:43:27;;;;;;;3.53;1.50;;;16.90;58.60;;;;;;5086001;28;20055;-55
2021/07/22 06:45:57;;;;;;;2.55;0.98;;;16.90;58.80;;;;;;5086603;28;20107;-58
2021/07/22 06:48:27;;;;;;;1.75;0.70;;;16.80;59.60;;;;;;5086866;28;20031;-56
2021/07/22 06:50:54;;;;;;;1.63;0.98;;;16.70;59.40;;;;;;5086130;28;20028;-57
2021/07/22 06:53:22;;;;;;;5.72;0.90;;;16.70;59.70;;;;;;5086154;28;20016;-56
2021/07/22 06:55:52;;;;;;;3.85;0.80;;;16.60;60.30;;;;;;5086432;28;21070;-55
2021/07/22 06:58:19;;;;;;;3.60;1.27;;;16.50;60.50;;;;;;5086164;28;20039;-55
2021/07/22 07:00:47;;;;;;;2.38;0.90;;;16.50;61.00;;;;;;5086541;28;20040;-58
2021/07/22 07:03:14;;;;;;;3.92;0.95;;;16.50;60.90;;;;;;5085924;28;20047;-61
2021/07/22 07:05:41;;;;;;;2.92;0.88;;;16.40;61.00;;;;;;5086443;28;20058;-56
2021/07/22 07:08:09;;;;;;;3.08;1.20;;;16.40;61.60;;;;;;5086639;28;20085;-55
2021/07/22 07:10:36;;;;;;;4.38;0.80;;;16.30;61.60;;;;;;5086257;28;20032;-56
2021/07/22 07:13:05;;;;;;;3.72;1.13;;;16.30;61.60;;;;;;5085963;28;20035;-59
2021/07/22 07:15:32;;;;;;;2.13;0.85;;;16.30;61.90;;;;;;5067220;28;20480;-60
2021/07/22 07:18:03;;;;;;;1.73;1.00;;;16.20;61.80;;;;;;5086094;28;20181;-56
2021/07/22 07:20:32;;;;;;;4.47;0.63;;;16.20;62.00;;;;;;5086065;28;20042;-57
2021/07/22 07:22:59;;;;;;;4.60;1.00;;;16.20;62.10;;;;;;5086038;28;20032;-54
2021/07/22 07:25:27;;;;;;;3.20;1.13;;;16.20;62.20;;;;;;5085839;28;20028;-58
2021/07/22 07:27:54;;;;;;;2.67;1.08;;;16.20;62.20;;;;;;5085100;28;20056;-57
2021/07/22 07:30:21;;;;;;;1.85;0.80;;;16.10;62.30;;;;;;5067341;28;20040;-56
2021/07/22 07:32:52;;;;;;;2.42;0.90;;;16.10;62.30;;;;;;5085653;28;20118;-58
2021/07/22 07:35:19;;;;;;;4.93;1.10;;;16.10;62.60;;;;;;5085244;28;20543;-53
2021/07/22 07:37:47;;;;;;;3.08;0.77;;;16.10;62.60;;;;;;5085858;28;20046;-57
2021/07/22 07:40:14;;;;;;;2.42;0.80;;;16.00;62.70;;;;;;5086147;28;20020;-51
2021/07/22 07:42:42;;;;;;;3.63;1.00;;;16.00;62.80;;;;;;5085207;28;20024;-55
2021/07/22 07:45:10;;;;;;;2.67;1.13;;;16.00;63.00;;;;;;5067153;28;20024;-57
2021/07/22 07:47:37;;;;;;;8.77;1.20;;;16.00;63.00;;;;;;5085756;28;20063;-55
2021/07/22 07:50:07;;;;;;;2.00;1.05;;;15.90;63.10;;;;;;5085706;28;20054;-56
2021/07/22 07:52:36;;;;;;;5.97;1.08;;;15.90;63.20;;;;;;5085392;28;20066;-57
2021/07/22 07:55:08;;;;;;;6.93;1.38;;;15.90;63.40;;;;;;5085391;28;20036;-56
2021/07/22 07:57:35;;;;;;;4.85;1.00;;;15.90;63.70;;;;;;5085434;28;20600;-56
2021/07/22 08:00:03;;;;;;;2.40;1.02;;;15.80;63.60;;;;;;5085533;28;20073;-56
2021/07/22 08:02:30;;;;;;;5.15;1.52;;;15.80;63.60;;;;;;5085753;28;20453;-57
2021/07/22 08:04:58;;;;;;;2.78;1.30;;;15.80;63.50;;;;;;5084810;28;20475;-57
2021/07/22 08:07:25;;;;;;;2.97;1.10;;;15.80;63.90;;;;;;5085187;28;20350;-57
2021/07/22 08:09:53;;;;;;;2.38;0.95;;;15.80;63.90;;;;;;5085185;28;20390;-55
2021/07/22 08:12:22;;;;;;;3.85;1.48;;;15.80;64.20;;;;;;5084993;28;20111;-58
2021/07/22 08:14:49;;;;;;;1.65;0.90;;;15.70;64.20;;;;;;5066565;28;20409;-60
2021/07/22 08:17:20;;;;;;;4.30;1.27;;;15.70;64.40;;;;;;5066618;28;20036;-60
2021/07/22 08:19:48;;;;;;;4.93;1.37;;;15.70;64.40;;;;;;5085294;28;20036;-59
2021/07/22 08:22:15;;;;;;;3.30;1.55;;;15.70;64.50;;;;;;5085193;28;20088;-61
2021/07/22 08:24:43;;;;;;;4.38;1.85;;;15.70;64.80;;;;;;5084516;28;20039;-54
2021/07/22 08:27:11;;;;;;;3.83;1.67;;;15.60;64.80;;;;;;5084289;28;20060;-57
2021/07/22 08:29:40;;;;;;;4.90;1.75;;;15.60;64.90;;;;;;5085302;28;20040;-61
2021/07/22 08:32:08;;;;;;;2.50;1.13;;;15.60;64.90;;;;;;5092760;28;20019;-64
2021/07/22 08:34:35;;;;;;;6.40;1.55;;;15.60;65.00;;;;;;5106527;28;20063;-60
2021/07/22 08:37:09;;;;;;;4.55;1.45;;;15.60;65.00;;;;;;5110326;28;20398;-60
2021/07/22 08:39:41;;;;;;;3.38;1.60;;;15.60;65.10;;;;;;5109342;28;20118;-63
2021/07/22 08:42:10;;;;;;;1.88;1.17;;;15.50;65.10;;;;;;5110109;28;20076;-61
2021/07/22 08:44:40;;;;;;;2.20;1.27;;;15.50;65.10;;;;;;5110215;28;20057;-62
2021/07/22 08:47:09;;;;;;;3.97;1.55;;;15.50;65.20;;;;;;5109806;28;20020;-64
2021/07/22 08:49:39;;;;;;;4.82;2.55;;;15.50;65.30;;;;;;5109457;28;20447;-62
2021/07/22 08:52:11;;;;;;;15.90;7.60;;;15.50;65.40;;;;;;5109989;28;20028;-60
2021/07/22 08:54:39;;;;;;;43.00;20.17;;;15.40;65.60;;;;;;5109876;28;20031;-56
2021/07/22 08:57:09;;;;;;;44.30;22.38;;;15.40;65.50;;;;;;5088730;28;20066;-59
2021/07/22 08:59:36;;;;;;;42.40;22.63;;;15.40;65.60;;;;;;5098305;28;20072;-57
2021/07/22 09:02:06;;;;;;;44.00;20.73;;;15.40;65.50;;;;;;5081144;28;20446;-58
2021/07/22 09:04:53;;;;;;;51.90;25.13;;;15.40;65.60;;;;;;5095822;28;20427;-57
2021/07/22 09:07:21;;;;;;;62.33;29.50;;;15.40;65.70;;;;;;5097598;28;20040;-56
2021/07/22 09:10:06;;;;;;;64.38;34.03;;;15.50;65.90;;;;;;5098458;28;20377;-52
2021/07/22 09:12:42;;;;;;;70.78;34.75;;;15.40;65.90;;;;;;5093001;28;20020;-61
2021/07/22 09:15:32;;;;;;;73.80;35.17;;;15.40;65.90;;;;;;5095469;28;20472;-58
2021/07/22 09:18:19;;;;;;;69.65;34.83;;;15.40;65.90;;;;;;5092002;28;20039;-63
2021/07/22 09:20:46;;;;;;;79.90;39.90;;;15.50;66.10;;;;;;5095143;28;20051;-55
2021/07/22 09:23:25;;;;;;;79.00;40.25;;;15.50;66.20;;;;;;5075512;28;20130;-61
2021/07/22 09:25:56;;;;;;;63.88;35.03;;;15.50;66.20;;;;;;5100203;28;20486;-57
2021/07/22 09:28:25;;;;;;;83.13;41.95;;;15.50;66.10;;;;;;5060447;28;20057;-60
2021/07/22 09:31:01;;;;;;;86.50;40.50;;;15.50;66.10;;;;;;5055865;28;20368;-59
2021/07/22 09:33:44;;;;;;;82.30;45.08;;;15.50;66.30;;;;;;5055539;28;20064;-59
2021/07/22 09:36:21;;;;;;;88.78;47.03;;;15.50;66.40;;;;;;5051538;28;20095;-53
2021/07/22 09:38:49;;;;;;;104.47;47.65;;;15.50;66.40;;;;;;5056552;28;20112;-60
2021/07/22 09:41:24;;;;;;;95.75;48.28;;;15.50;66.50;;;;;;5055841;28;20135;-59
2021/07/22 09:43:51;;;;;;;87.50;45.55;;;15.50;66.50;;;;;;5057145;28;20033;-60
2021/07/22 09:46:21;;;;;;;93.03;45.72;;;15.50;66.40;;;;;;5059775;28;20029;-61
2021/07/22 09:49:13;;;;;;;89.55;46.28;;;15.50;66.40;;;;;;5056329;28;20037;-60
2021/07/22 09:51:41;;;;;;;93.85;45.28;;;15.50;66.50;;;;;;5061659;28;20032;-57
2021/07/22 09:54:12;;;;;;;91.35;46.33;;;15.50;66.50;;;;;;5066741;28;20051;-65
2021/07/22 09:56:42;;;;;;;92.25;46.35;;;15.50;66.50;;;;;;5060785;28;20491;-61
2021/07/22 09:59:10;;;;;;;94.93;47.85;;;15.50;66.60;;;;;;5061987;28;20033;-60
2021/07/22 10:01:48;;;;;;;96.75;49.33;;;15.40;66.60;;;;;;5056489;28;20044;-60
2021/07/22 10:04:19;;;;;;;85.68;44.67;;;15.40;66.60;;;;;;5064407;28;20028;-59
2021/07/22 10:06:48;;;;;;;84.45;44.35;;;15.40;66.60;;;;;;5064827;28;20479;-64
2021/07/22 10:09:18;;;;;;;91.95;44.35;;;15.40;66.50;;;;;;5061073;28;20028;-59
2021/07/22 10:11:47;;;;;;;82.35;45.45;;;15.40;66.70;;;;;;5062725;28;20024;-58
2021/07/22 10:14:18;;;;;;;95.95;46.47;;;15.40;66.70;;;;;;5058237;28;20107;-60
2021/07/22 10:16:48;;;;;;;88.45;42.08;;;15.40;66.70;;;;;;5059009;28;20625;-58
2021/07/22 10:19:17;;;;;;;87.20;43.67;;;15.40;66.60;;;;;;5056659;28;20511;-60
2021/07/22 10:21:46;;;;;;;74.22;40.60;;;15.40;66.80;;;;;;5054966;28;20143;-64
2021/07/22 10:24:13;;;;;;;85.93;42.58;;;15.40;66.70;;;;;;5060202;28;20107;-62
2021/07/22 10:26:41;;;;;;;83.63;41.97;;;15.40;66.70;;;;;;5055931;28;20098;-62
2021/07/22 10:29:09;;;;;;;77.70;41.88;;;15.40;66.80;;;;;;5101014;28;20104;-62
2021/07/22 10:31:46;;;;;;;78.90;41.72;;;15.30;66.80;;;;;;5099262;28;20117;-58
2021/07/22 10:34:16;;;;;;;83.40;42.40;;;15.30;66.80;;;;;;5100286;28;20031;-58
2021/07/22 10:36:45;;;;;;;79.53;41.33;;;15.30;66.90;;;;;;5102850;28;20040;-61
2021/07/22 10:39:16;;;;;;;79.18;44.10;;;15.30;67.00;;;;;;5100008;28;20042;-61
2021/07/22 10:41:44;;;;;;;71.82;39.03;;;15.30;67.20;;;;;;5100561;28;20081;-59
2021/07/22 10:44:20;;;;;;;79.35;40.83;;;15.30;67.20;;;;;;5102134;28;20024;-58
2021/07/22 10:47:02;;;;;;;69.50;38.03;;;15.30;67.10;;;;;;5103560;28;20464;-52
2021/07/22 10:49:40;;;;;;;62.65;36.25;;;15.30;67.30;;;;;;5102509;28;20046;-56
2021/07/22 10:52:13;;;;;;;79.85;37.15;;;15.20;67.30;;;;;;5100559;28;20035;-56
2021/07/22 10:54:51;;;;;;;68.47;35.67;;;15.20;67.30;;;;;;5096783;28;20020;-52
2021/07/22 10:57:38;;;;;;;67.30;35.42;;;15.20;67.40;;;;;;5101232;28;20050;-56
2021/07/22 11:00:08;;;;;;;72.15;36.40;;;15.20;67.30;;;;;;5100124;28;20031;-54
2021/07/22 11:02:46;;;;;;;65.90;35.65;;;15.20;67.40;;;;;;5096368;28;20054;-57
2021/07/22 11:05:25;;;;;;;62.35;34.00;;;15.20;67.30;;;;;;5098242;28;20035;-59
2021/07/22 11:08:18;;;;;;;57.38;32.90;;;15.20;67.30;;;;;;5099171;28;20028;-54
2021/07/22 11:11:03;;;;;;;63.28;34.22;;;15.20;67.50;;;;;;5098454;28;20688;-58
2021/07/22 11:13:37;;;;;;;61.83;31.50;;;15.20;67.50;;;;;;5102301;28;20038;-55
2021/07/22 11:16:12;;;;;;;60.33;32.17;;;15.20;67.50;;;;;;5100012;28;20115;-58
2021/07/22 11:21:18;;;;;;;56.42;29.88;;;15.20;67.60;;;;;;5098655;28;20058;-60
2021/07/22 11:24:09;;;;;;;64.18;31.42;;;15.20;67.70;;;;;;5104266;28;20477;-57
2021/07/22 11:26:42;;;;;;;55.35;29.55;;;15.20;67.70;;;;;;5105328;28;20054;-60
2021/07/22 11:29:11;;;;;;;50.60;26.85;;;15.10;67.70;;;;;;5103083;28;20060;-64
2021/07/22 11:31:44;;;;;;;50.42;27.13;;;15.10;67.80;;;;;;5097062;28;20545;-63
2021/07/22 11:34:12;;;;;;;49.20;26.92;;;15.10;67.80;;;;;;5101006;28;20388;-63
2021/07/22 11:36:43;;;;;;;54.63;27.25;;;15.10;67.80;;;;;;5105663;28;20035;-62
2021/07/22 11:39:10;;;;;;;47.72;26.58;;;15.20;68.20;;;;;;5096606;28;20034;-56
2021/07/22 11:41:38;;;;;;;51.53;27.40;;;15.20;67.80;;;;;;5102653;28;20032;-59
2021/07/22 11:44:07;;;;;;;50.33;26.92;;;15.10;67.70;;;;;;5096674;28;20450;-58
2021/07/22 11:46:40;;;;;;;49.25;25.20;;;15.10;67.80;;;;;;5090700;28;20504;-63
2021/07/22 11:49:18;;;;;;;52.47;26.75;;;15.10;68.00;;;;;;5089099;28;20035;-57
2021/07/22 11:51:48;;;;;;;42.30;24.17;;;15.10;68.00;;;;;;5106274;28;20024;-59
2021/07/22 11:54:18;;;;;;;44.13;23.63;;;15.10;68.10;;;;;;5076358;28;20044;-59
2021/07/22 11:56:50;;;;;;;41.10;22.48;;;15.00;68.10;;;;;;5085607;28;20453;-58
2021/07/22 11:59:17;;;;;;;49.17;23.33;;;15.00;68.00;;;;;;5084945;28;20032;-58
2021/07/22 12:01:50;;;;;;;41.17;22.75;;;15.00;68.10;;;;;;5085501;28;20390;-60
2021/07/22 12:04:26;;;;;;;41.03;21.25;;;15.00;68.20;;;;;;5085156;28;20501;-58
2021/07/22 12:06:56;;;;;;;39.83;22.02;;;15.00;68.30;;;;;;5085611;28;20591;-59
2021/07/22 12:09:23;;;;;;;34.88;19.13;;;15.00;68.40;;;;;;5085549;28;20039;-57
2021/07/22 12:11:55;;;;;;;38.60;19.55;;;15.00;68.40;;;;;;5085921;28;20063;-59
2021/07/22 12:14:31;;;;;;;32.70;17.95;;;15.00;68.40;;;;;;5085802;28;20024;-58
2021/07/22 12:17:06;;;;;;;35.75;18.33;;;14.90;68.40;;;;;;5085572;28;20047;-61
2021/07/22 12:19:35;;;;;;;36.00;18.85;;;14.90;68.50;;;;;;5085459;28;20101;-61
2021/07/22 12:22:21;;;;;;;34.40;17.88;;;14.90;68.60;;;;;;5085676;28;20032;-61
2021/07/22 12:24:56;;;;;;;31.50;18.42;;;14.90;68.60;;;;;;5085583;28;20032;-63
2021/07/22 12:27:34;;;;;;;33.40;17.35;;;14.90;68.80;;;;;;5084503;28;20565;-61
2021/07/22 12:30:19;;;;;;;30.17;16.10;;;14.90;68.80;;;;;;5085530;28;20443;-60
2021/07/22 12:32:54;;;;;;;25.13;15.27;;;14.80;68.70;;;;;;5085002;28;20020;-60
2021/07/22 12:35:33;;;;;;;30.67;16.65;;;14.80;68.80;;;;;;5085021;28;20024;-61
2021/07/22 12:38:03;;;;;;;28.15;16.33;;;14.80;68.90;;;;;;5085330;28;20116;-63
2021/07/22 12:40:44;;;;;;;31.70;16.67;;;14.80;68.90;;;;;;5085338;28;20020;-61
2021/07/22 12:43:19;;;;;;;29.40;16.17;;;14.80;69.00;;;;;;5085732;28;20056;-62
2021/07/22 12:45:49;;;;;;;30.50;16.02;;;14.80;69.80;;;;;;5084932;28;20024;-61
2021/07/22 12:48:18;;;;;;;28.83;15.20;;;14.80;69.10;;;;;;5084342;28;20032;-61
2021/07/22 12:50:50;;;;;;;30.73;15.10;;;14.80;69.20;;;;;;5091078;28;20016;-57
2021/07/22 12:53:33;;;;;;;29.63;14.75;;;14.80;69.20;;;;;;5105283;28;20066;-55
2021/07/22 12:56:01;;;;;;;25.70;14.60;;;14.80;69.20;;;;;;5104927;28;20043;-55